sensor_id;sensor_type;location;lat;lon;timestamp;pressure;altitude;pressure_sealevel;temperature;humidity
49943;BME280;36011;53.362;58.948;2023-02-27T00:02:08;97598.81;;;-7.97;66.02
49943;BME280;36011;53.362;58.948;2023-02-27T00:05:10;97598.94;;;-7.91;66.17
49943;BME280;36011;53.362;58.948;2023-02-27T00:08:11;97580.91;;;-7.99;66.32
49943;BME280;36011;53.362;58.948;2023-02-27T00:11:15;97581.75;;;-8.00;66.09
49943;BME280;36011;53.362;58.948;2023-02-27T00:14:19;97583.97;;;-7.73;65.38
49943;BME280;36011;53.362;58.948;2023-02-27T00:17:20;97570.94;;;-7.85;65.53
49943;BME280;36011;53.362;58.948;2023-02-27T00:20:22;97566.19;;;-7.66;65.06
49943;BME280;36011;53.362;58.948;2023-02-27T00:23:23;97570.06;;;-7.87;65.66
49943;BME280;36011;53.362;58.948;2023-02-27T00:26:27;97568.78;;;-7.63;65.03
49943;BME280;36011;53.362;58.948;2023-02-27T00:29:36;97560.94;;;-7.74;65.34
49943;BME280;36011;53.362;58.948;2023-02-27T00:32:51;97547.16;;;-7.84;65.92
49943;BME280;36011;53.362;58.948;2023-02-27T00:35:59;97558.22;;;-7.82;65.53
49943;BME280;36011;53.362;58.948;2023-02-27T00:39:02;97552.47;;;-7.70;65.69
49943;BME280;36011;53.362;58.948;2023-02-27T00:42:07;97520.00;;;-7.77;65.27
49943;BME280;36011;53.362;58.948;2023-02-27T00:45:13;97539.59;;;-7.78;65.35
49943;BME280;36011;53.362;58.948;2023-02-27T00:48:17;97540.03;;;-7.99;65.24
49943;BME280;36011;53.362;58.948;2023-02-27T00:51:22;97527.09;;;-8.09;65.75
49943;BME280;36011;53.362;58.948;2023-02-27T00:54:23;97514.97;;;-8.20;66.00
49943;BME280;36011;53.362;58.948;2023-02-27T00:57:27;97519.19;;;-8.22;66.68
49943;BME280;36011;53.362;58.948;2023-02-27T01:00:29;97541.41;;;-8.16;66.97
49943;BME280;36011;53.362;58.948;2023-02-27T01:03:32;97515.34;;;-7.98;66.47
49943;BME280;36011;53.362;58.948;2023-02-27T01:06:33;97506.13;;;-7.92;66.03
49943;BME280;36011;53.362;58.948;2023-02-27T01:09:40;97521.91;;;-8.13;66.44
49943;BME280;36011;53.362;58.948;2023-02-27T01:12:41;97523.81;;;-8.02;66.23
49943;BME280;36011;53.362;58.948;2023-02-27T01:15:45;97513.31;;;-8.18;66.52
49943;BME280;36011;53.362;58.948;2023-02-27T01:18:47;97502.38;;;-8.12;66.25
49943;BME280;36011;53.362;58.948;2023-02-27T01:21:48;97506.06;;;-8.43;67.12
49943;BME280;36011;53.362;58.948;2023-02-27T01:24:53;97513.00;;;-8.34;67.07
49943;BME280;36011;53.362;58.948;2023-02-27T01:27:57;97511.38;;;-8.31;67.34
49943;BME280;36011;53.362;58.948;2023-02-27T01:30:58;97500.38;;;-8.27;67.98
49943;BME280;36011;53.362;58.948;2023-02-27T01:34:03;97490.88;;;-8.34;67.74
49943;BME280;36011;53.362;58.948;2023-02-27T01:37:04;97486.47;;;-8.44;68.08
49943;BME280;36011;53.362;58.948;2023-02-27T01:40:06;97478.44;;;-8.17;68.38
49943;BME280;36011;53.362;58.948;2023-02-27T01:43:14;97477.34;;;-8.30;68.40
49943;BME280;36011;53.362;58.948;2023-02-27T01:46:18;97462.03;;;-8.30;68.32
49943;BME280;36011;53.362;58.948;2023-02-27T01:49:24;97443.34;;;-8.29;68.54
49943;BME280;36011;53.362;58.948;2023-02-27T01:52:30;97440.72;;;-8.32;68.97
49943;BME280;36011;53.362;58.948;2023-02-27T01:55:34;97435.69;;;-8.27;69.12
49943;BME280;36011;53.362;58.948;2023-02-27T01:58:38;97440.88;;;-8.23;69.50
49943;BME280;36011;53.362;58.948;2023-02-27T02:01:39;97433.06;;;-8.32;69.64
49943;BME280;36011;53.362;58.948;2023-02-27T02:04:41;97417.81;;;-8.27;70.13
49943;BME280;36011;53.362;58.948;2023-02-27T02:07:46;97417.22;;;-8.13;69.54
49943;BME280;36011;53.362;58.948;2023-02-27T02:10:50;97410.50;;;-8.07;68.93
49943;BME280;36011;53.362;58.948;2023-02-27T02:14:01;97412.91;;;-8.17;69.49
49943;BME280;36011;53.362;58.948;2023-02-27T02:27:10;97390.34;;;-7.92;69.32
49943;BME280;36011;53.362;58.948;2023-02-27T02:40:59;97350.50;;;-7.81;70.11
49943;BME280;36011;53.362;58.948;2023-02-27T02:50:41;97352.41;;;-7.64;70.30
49943;BME280;36011;53.362;58.948;2023-02-27T02:54:10;97365.94;;;-7.72;70.85
49943;BME280;36011;53.362;58.948;2023-02-27T02:57:22;97341.28;;;-7.68;70.43
49943;BME280;36011;53.362;58.948;2023-02-27T03:00:34;97321.88;;;-7.55;71.08
49943;BME280;36011;53.362;58.948;2023-02-27T03:03:43;97340.50;;;-7.62;70.70
49943;BME280;36011;53.362;58.948;2023-02-27T03:06:57;97340.69;;;-7.50;70.84
49943;BME280;36011;53.362;58.948;2023-02-27T03:10:43;97340.59;;;-7.56;70.90
49943;BME280;36011;53.362;58.948;2023-02-27T03:17:45;97335.09;;;-7.20;70.72
49943;BME280;36011;53.362;58.948;2023-02-27T03:20:56;97347.91;;;-7.18;71.10
49943;BME280;36011;53.362;58.948;2023-02-27T03:24:06;97333.44;;;-7.18;71.18
49943;BME280;36011;53.362;58.948;2023-02-27T03:27:10;97338.88;;;-6.90;70.76
49943;BME280;36011;53.362;58.948;2023-02-27T03:30:34;97351.66;;;-6.90;70.72
49943;BME280;36011;53.362;58.948;2023-02-27T03:33:52;97333.06;;;-6.75;71.06
49943;BME280;36011;53.362;58.948;2023-02-27T03:40:28;97340.09;;;-6.53;70.01
49943;BME280;36011;53.362;58.948;2023-02-27T03:46:53;97335.06;;;-6.44;70.38
49943;BME280;36011;53.362;58.948;2023-02-27T03:49:55;97327.44;;;-6.35;69.91
49943;BME280;36011;53.362;58.948;2023-02-27T03:52:59;97333.44;;;-6.36;70.35
49943;BME280;36011;53.362;58.948;2023-02-27T03:56:05;97309.69;;;-6.19;70.13
49943;BME280;36011;53.362;58.948;2023-02-27T03:59:07;97287.44;;;-6.23;70.02
49943;BME280;36011;53.362;58.948;2023-02-27T04:02:11;97288.31;;;-6.21;69.96
49943;BME280;36011;53.362;58.948;2023-02-27T04:05:12;97284.16;;;-6.04;69.17
49943;BME280;36011;53.362;58.948;2023-02-27T04:08:42;97285.91;;;-6.00;69.58
49943;BME280;36011;53.362;58.948;2023-02-27T04:29:15;97260.53;;;-5.42;68.09
49943;BME280;36011;53.362;58.948;2023-02-27T04:32:35;97265.66;;;-5.42;68.24
49943;BME280;36011;53.362;58.948;2023-02-27T04:35:55;97247.78;;;-5.29;68.10
49943;BME280;36011;53.362;58.948;2023-02-27T04:39:05;97255.47;;;-5.29;68.33
49943;BME280;36011;53.362;58.948;2023-02-27T04:42:15;97242.66;;;-5.25;67.72
49943;BME280;36011;53.362;58.948;2023-02-27T04:45:24;97245.22;;;-5.15;67.32
49943;BME280;36011;53.362;58.948;2023-02-27T04:48:32;97235.00;;;-5.09;67.38
49943;BME280;36011;53.362;58.948;2023-02-27T04:51:43;97234.19;;;-4.85;67.85
49943;BME280;36011;53.362;58.948;2023-02-27T04:54:55;97224.78;;;-4.91;67.08
49943;BME280;36011;53.362;58.948;2023-02-27T04:58:08;97223.94;;;-4.82;67.47
49943;BME280;36011;53.362;58.948;2023-02-27T05:01:19;97219.66;;;-4.68;67.71
49943;BME280;36011;53.362;58.948;2023-02-27T05:04:24;97216.25;;;-4.27;66.56
49943;BME280;36011;53.362;58.948;2023-02-27T05:07:34;97211.03;;;-3.99;65.96
49943;BME280;36011;53.362;58.948;2023-02-27T05:14:03;97209.97;;;-3.31;66.21
49943;BME280;36011;53.362;58.948;2023-02-27T05:17:12;97193.38;;;-2.84;65.38
49943;BME280;36011;53.362;58.948;2023-02-27T05:20:14;97179.47;;;-2.61;64.71
49943;BME280;36011;53.362;58.948;2023-02-27T05:33:48;97151.34;;;-1.95;63.05
49943;BME280;36011;53.362;58.948;2023-02-27T05:37:03;97167.59;;;-1.87;62.47
49943;BME280;36011;53.362;58.948;2023-02-27T05:40:09;97167.72;;;-1.97;62.74
49943;BME280;36011;53.362;58.948;2023-02-27T05:43:33;97143.66;;;-1.98;63.37
49943;BME280;36011;53.362;58.948;2023-02-27T05:46:41;97156.38;;;-1.83;62.94
49943;BME280;36011;53.362;58.948;2023-02-27T05:49:51;97176.75;;;-1.61;62.49
49943;BME280;36011;53.362;58.948;2023-02-27T05:53:02;97167.97;;;-1.48;61.43
49943;BME280;36011;53.362;58.948;2023-02-27T05:56:12;97147.38;;;-1.51;61.49
49943;BME280;36011;53.362;58.948;2023-02-27T05:59:30;97152.31;;;-1.32;61.22
49943;BME280;36011;53.362;58.948;2023-02-27T06:02:34;97164.16;;;-1.19;61.14
49943;BME280;36011;53.362;58.948;2023-02-27T06:05:40;97142.59;;;-1.17;60.06
49943;BME280;36011;53.362;58.948;2023-02-27T06:08:42;97147.00;;;-1.23;60.43
49943;BME280;36011;53.362;58.948;2023-02-27T06:11:46;97141.72;;;-1.14;60.22
49943;BME280;36011;53.362;58.948;2023-02-27T06:14:51;97141.91;;;-1.26;60.11
49943;BME280;36011;53.362;58.948;2023-02-27T06:17:53;97144.44;;;-1.25;59.67
49943;BME280;36011;53.362;58.948;2023-02-27T06:20:55;97141.94;;;-1.29;60.10
49943;BME280;36011;53.362;58.948;2023-02-27T06:23:57;97132.47;;;-1.30;60.11
49943;BME280;36011;53.362;58.948;2023-02-27T06:27:01;97142.59;;;-1.17;59.64
49943;BME280;36011;53.362;58.948;2023-02-27T06:30:07;97119.44;;;-1.21;59.47
49943;BME280;36011;53.362;58.948;2023-02-27T06:33:11;97118.38;;;-1.08;60.03
49943;BME280;36011;53.362;58.948;2023-02-27T06:36:12;97116.13;;;-0.74;58.23
49943;BME280;36011;53.362;58.948;2023-02-27T06:39:14;97113.53;;;-0.72;56.54
49943;BME280;36011;53.362;58.948;2023-02-27T06:42:20;97107.03;;;-0.98;58.21
49943;BME280;36011;53.362;58.948;2023-02-27T06:45:27;97098.19;;;-0.81;57.57
49943;BME280;36011;53.362;58.948;2023-02-27T06:48:28;97084.47;;;-0.85;57.93
49943;BME280;36011;53.362;58.948;2023-02-27T06:51:33;97078.47;;;-0.88;58.00
49943;BME280;36011;53.362;58.948;2023-02-27T06:54:36;97075.72;;;-0.76;57.97
49943;BME280;36011;53.362;58.948;2023-02-27T06:57:38;97072.41;;;-0.84;58.57
49943;BME280;36011;53.362;58.948;2023-02-27T07:00:39;97067.34;;;-0.94;58.55
49943;BME280;36011;53.362;58.948;2023-02-27T07:03:44;97045.88;;;-0.96;58.46
49943;BME280;36011;53.362;58.948;2023-02-27T07:06:45;97057.63;;;-0.76;58.91
49943;BME280;36011;53.362;58.948;2023-02-27T07:09:51;97051.50;;;-0.72;57.96
49943;BME280;36011;53.362;58.948;2023-02-27T07:12:52;97048.09;;;-0.74;57.99
49943;BME280;36011;53.362;58.948;2023-02-27T07:15:57;97043.34;;;-0.99;58.69
49943;BME280;36011;53.362;58.948;2023-02-27T07:18:59;97006.06;;;-0.84;59.79
49943;BME280;36011;53.362;58.948;2023-02-27T07:22:03;97002.63;;;-0.36;60.59
49943;BME280;36011;53.362;58.948;2023-02-27T07:25:05;96994.69;;;0.13;60.04
49943;BME280;36011;53.362;58.948;2023-02-27T07:28:10;96993.81;;;0.89;61.38
49943;BME280;36011;53.362;58.948;2023-02-27T07:31:13;96978.00;;;1.65;61.82
49943;BME280;36011;53.362;58.948;2023-02-27T07:34:17;96985.03;;;2.21;60.52
49943;BME280;36011;53.362;58.948;2023-02-27T07:37:22;96966.81;;;2.51;60.18
49943;BME280;36011;53.362;58.948;2023-02-27T07:40:27;96994.19;;;2.89;58.55
49943;BME280;36011;53.362;58.948;2023-02-27T07:43:32;96958.38;;;2.97;58.41
49943;BME280;36011;53.362;58.948;2023-02-27T07:46:37;96951.75;;;3.13;58.16
49943;BME280;36011;53.362;58.948;2023-02-27T07:49:41;96941.56;;;3.32;57.66
49943;BME280;36011;53.362;58.948;2023-02-27T07:52:46;96942.09;;;3.42;57.41
49943;BME280;36011;53.362;58.948;2023-02-27T07:55:48;96912.50;;;3.21;58.00
49943;BME280;36011;53.362;58.948;2023-02-27T07:58:52;96939.00;;;3.31;57.81
49943;BME280;36011;53.362;58.948;2023-02-27T08:01:57;96966.75;;;3.32;57.77
49943;BME280;36011;53.362;58.948;2023-02-27T08:05:02;96938.16;;;3.30;57.78
49943;BME280;36011;53.362;58.948;2023-02-27T08:08:07;96909.91;;;3.45;57.78
49943;BME280;36011;53.362;58.948;2023-02-27T08:11:12;96889.28;;;3.64;57.56
49943;BME280;36011;53.362;58.948;2023-02-27T08:14:18;96917.59;;;3.96;56.37
49943;BME280;36011;53.362;58.948;2023-02-27T08:17:23;96888.66;;;3.80;56.83
49943;BME280;36011;53.362;58.948;2023-02-27T08:20:28;96886.41;;;3.71;57.30
49943;BME280;36011;53.362;58.948;2023-02-27T08:23:35;96885.09;;;3.83;56.75
49943;BME280;36011;53.362;58.948;2023-02-27T08:26:39;96902.69;;;3.53;57.13
49943;BME280;36011;53.362;58.948;2023-02-27T08:29:42;96866.50;;;3.47;57.62
49943;BME280;36011;53.362;58.948;2023-02-27T08:32:50;96847.22;;;3.29;57.74
49943;BME280;36011;53.362;58.948;2023-02-27T08:35:55;96850.09;;;2.96;58.66
49943;BME280;36011;53.362;58.948;2023-02-27T08:39:00;96857.53;;;2.82;59.58
49943;BME280;36011;53.362;58.948;2023-02-27T08:42:05;96835.38;;;2.46;60.31
49943;BME280;36011;53.362;58.948;2023-02-27T08:45:09;96847.84;;;2.60;60.58
49943;BME280;36011;53.362;58.948;2023-02-27T08:48:14;96849.78;;;2.55;60.48
49943;BME280;36011;53.362;58.948;2023-02-27T08:51:20;96869.75;;;2.53;60.71
49943;BME280;36011;53.362;58.948;2023-02-27T08:54:25;96856.22;;;2.43;61.23
49943;BME280;36011;53.362;58.948;2023-02-27T08:57:30;96837.69;;;2.54;61.01
49943;BME280;36011;53.362;58.948;2023-02-27T09:00:35;96837.56;;;2.57;62.02
49943;BME280;36011;53.362;58.948;2023-02-27T09:03:40;96832.59;;;3.01;62.60
49943;BME280;36011;53.362;58.948;2023-02-27T09:06:44;96841.34;;;3.47;61.72
49943;BME280;36011;53.362;58.948;2023-02-27T09:09:49;96860.75;;;3.84;60.72
49943;BME280;36011;53.362;58.948;2023-02-27T09:12:54;96840.66;;;4.10;59.98
49943;BME280;36011;53.362;58.948;2023-02-27T09:15:59;96841.63;;;4.29;58.87
49943;BME280;36011;53.362;58.948;2023-02-27T09:19:04;96788.44;;;4.35;58.69
49943;BME280;36011;53.362;58.948;2023-02-27T09:22:10;96739.78;;;4.35;58.68
49943;BME280;36011;53.362;58.948;2023-02-27T09:25:14;96789.25;;;4.57;58.74
49943;BME280;36011;53.362;58.948;2023-02-27T09:28:19;96783.00;;;4.82;57.89
49943;BME280;36011;53.362;58.948;2023-02-27T09:31:24;96767.41;;;5.20;56.76
49943;BME280;36011;53.362;58.948;2023-02-27T09:34:31;96786.31;;;5.44;56.10
49943;BME280;36011;53.362;58.948;2023-02-27T09:37:36;96766.84;;;5.51;55.44
49943;BME280;36011;53.362;58.948;2023-02-27T09:40:42;96788.28;;;5.38;55.82
49943;BME280;36011;53.362;58.948;2023-02-27T09:43:49;96765.09;;;5.32;56.11
49943;BME280;36011;53.362;58.948;2023-02-27T09:46:55;96752.66;;;5.37;55.76
49943;BME280;36011;53.362;58.948;2023-02-27T09:50:25;96749.22;;;5.37;55.94
49943;BME280;36011;53.362;58.948;2023-02-27T09:53:48;96759.50;;;5.21;56.15
49943;BME280;36011;53.362;58.948;2023-02-27T09:57:02;96761.19;;;5.22;56.01
49943;BME280;36011;53.362;58.948;2023-02-27T10:00:29;96777.72;;;5.42;55.32
49943;BME280;36011;53.362;58.948;2023-02-27T10:13:41;96742.13;;;4.82;56.89
49943;BME280;36011;53.362;58.948;2023-02-27T10:16:52;96720.56;;;4.58;57.13
49943;BME280;36011;53.362;58.948;2023-02-27T10:20:02;96731.72;;;4.41;58.08
49943;BME280;36011;53.362;58.948;2023-02-27T10:23:18;96724.78;;;4.42;58.01
49943;BME280;36011;53.362;58.948;2023-02-27T10:26:29;96726.50;;;4.21;58.30
49943;BME280;36011;53.362;58.948;2023-02-27T10:29:35;96750.72;;;4.23;58.91
49943;BME280;36011;53.362;58.948;2023-02-27T10:32:43;96732.03;;;4.13;59.53
49943;BME280;36011;53.362;58.948;2023-02-27T10:35:49;96721.53;;;3.94;60.19
49943;BME280;36011;53.362;58.948;2023-02-27T10:38:59;96742.84;;;3.82;60.45
49943;BME280;36011;53.362;58.948;2023-02-27T10:42:05;96710.75;;;3.81;60.41
49943;BME280;36011;53.362;58.948;2023-02-27T10:45:15;96717.31;;;3.70;60.94
49943;BME280;36011;53.362;58.948;2023-02-27T10:48:20;96698.44;;;3.65;60.89
49943;BME280;36011;53.362;58.948;2023-02-27T10:51:33;96731.84;;;3.53;61.08
49943;BME280;36011;53.362;58.948;2023-02-27T10:54:40;96721.13;;;3.39;61.64
49943;BME280;36011;53.362;58.948;2023-02-27T10:57:46;96708.13;;;3.39;62.07
49943;BME280;36011;53.362;58.948;2023-02-27T11:00:58;96724.88;;;3.08;62.64
49943;BME280;36011;53.362;58.948;2023-02-27T11:04:03;96710.88;;;3.12;62.49
49943;BME280;36011;53.362;58.948;2023-02-27T11:07:10;96712.63;;;2.88;63.60
49943;BME280;36011;53.362;58.948;2023-02-27T11:10:19;96733.31;;;2.68;64.29
49943;BME280;36011;53.362;58.948;2023-02-27T11:13:26;96698.38;;;2.52;64.67
49943;BME280;36011;53.362;58.948;2023-02-27T11:16:48;96713.56;;;2.39;65.52
49943;BME280;36011;53.362;58.948;2023-02-27T11:19:53;96684.19;;;2.37;65.59
49943;BME280;36011;53.362;58.948;2023-02-27T11:23:17;96675.59;;;2.35;65.98
49943;BME280;36011;53.362;58.948;2023-02-27T11:29:35;96664.09;;;2.18;66.55
49943;BME280;36011;53.362;58.948;2023-02-27T11:32:46;96652.00;;;1.92;67.27
49943;BME280;36011;53.362;58.948;2023-02-27T11:35:53;96666.34;;;1.77;67.79
49943;BME280;36011;53.362;58.948;2023-02-27T11:38:59;96681.53;;;1.88;67.55
49943;BME280;36011;53.362;58.948;2023-02-27T11:42:29;96665.25;;;1.85;67.63
49943;BME280;36011;53.362;58.948;2023-02-27T11:45:37;96677.81;;;1.70;67.56
49943;BME280;36011;53.362;58.948;2023-02-27T11:49:02;96680.59;;;1.64;67.83
49943;BME280;36011;53.362;58.948;2023-02-27T11:52:32;96669.44;;;1.62;68.17
49943;BME280;36011;53.362;58.948;2023-02-27T11:55:40;96696.84;;;1.69;67.88
49943;BME280;36011;53.362;58.948;2023-02-27T12:05:38;96725.75;;;1.59;68.31
49943;BME280;36011;53.362;58.948;2023-02-27T12:12:02;96719.69;;;1.58;68.28
49943;BME280;36011;53.362;58.948;2023-02-27T12:21:49;96749.63;;;1.42;69.94
49943;BME280;36011;53.362;58.948;2023-02-27T12:25:11;96754.72;;;1.45;71.26
49943;BME280;36011;53.362;58.948;2023-02-27T12:28:27;96758.88;;;1.77;72.32
49943;BME280;36011;53.362;58.948;2023-02-27T12:35:48;96774.94;;;2.15;73.14
49943;BME280;36011;53.362;58.948;2023-02-27T12:38:26;96786.38;;;2.09;73.27
49943;BME280;36011;53.362;58.948;2023-02-27T12:51:56;96793.97;;;2.15;73.55
49943;BME280;36011;53.362;58.948;2023-02-27T12:55:11;96807.94;;;2.11;73.64
49943;BME280;36011;53.362;58.948;2023-02-27T13:01:47;96806.06;;;1.90;74.06
49943;BME280;36011;53.362;58.948;2023-02-27T13:18:35;96810.88;;;1.72;73.04
49943;BME280;36011;53.362;58.948;2023-02-27T13:21:42;96824.56;;;1.77;72.46
49943;BME280;36011;53.362;58.948;2023-02-27T13:24:54;96803.09;;;1.72;71.80
49943;BME280;36011;53.362;58.948;2023-02-27T13:28:10;96800.41;;;1.75;72.05
49943;BME280;36011;53.362;58.948;2023-02-27T13:35:22;96809.59;;;1.59;72.59
49943;BME280;36011;53.362;58.948;2023-02-27T13:41:52;96802.63;;;1.31;73.88
49943;BME280;36011;53.362;58.948;2023-02-27T13:45:01;96799.84;;;1.38;73.86
49943;BME280;36011;53.362;58.948;2023-02-27T13:48:35;96856.50;;;1.50;72.81
49943;BME280;36011;53.362;58.948;2023-02-27T13:51:44;96820.50;;;1.41;71.98
49943;BME280;36011;53.362;58.948;2023-02-27T13:54:46;96820.41;;;1.44;71.92
49943;BME280;36011;53.362;58.948;2023-02-27T13:57:54;96819.75;;;1.37;72.67
49943;BME280;36011;53.362;58.948;2023-02-27T14:00:59;96786.06;;;1.35;71.81
49943;BME280;36011;53.362;58.948;2023-02-27T14:04:04;96785.44;;;1.27;71.79
49943;BME280;36011;53.362;58.948;2023-02-27T14:07:11;96791.69;;;1.50;70.99
49943;BME280;36011;53.362;58.948;2023-02-27T14:10:24;96808.06;;;1.52;70.50
49943;BME280;36011;53.362;58.948;2023-02-27T14:17:01;96770.41;;;1.39;69.77
49943;BME280;36011;53.362;58.948;2023-02-27T14:23:21;96769.97;;;1.54;68.92
49943;BME280;36011;53.362;58.948;2023-02-27T14:26:31;96739.81;;;1.50;69.47
49943;BME280;36011;53.362;58.948;2023-02-27T14:29:34;96744.28;;;1.46;69.57
49943;BME280;36011;53.362;58.948;2023-02-27T14:32:38;96747.91;;;1.41;68.81
49943;BME280;36011;53.362;58.948;2023-02-27T14:35:49;96756.19;;;1.24;69.42
49943;BME280;36011;53.362;58.948;2023-02-27T14:38:55;96758.75;;;1.25;69.17
49943;BME280;36011;53.362;58.948;2023-02-27T14:45:22;96747.78;;;1.16;69.42
49943;BME280;36011;53.362;58.948;2023-02-27T14:48:27;96760.91;;;1.11;69.35
49943;BME280;36011;53.362;58.948;2023-02-27T14:51:32;96781.56;;;1.12;69.49
49943;BME280;36011;53.362;58.948;2023-02-27T14:54:40;96771.75;;;0.94;69.48
49943;BME280;36011;53.362;58.948;2023-02-27T15:01:07;96787.88;;;1.04;69.83
49943;BME280;36011;53.362;58.948;2023-02-27T15:04:15;96773.69;;;1.16;68.40
49943;BME280;36011;53.362;58.948;2023-02-27T15:07:23;96765.25;;;1.09;68.55
49943;BME280;36011;53.362;58.948;2023-02-27T15:10:29;96766.16;;;1.08;68.23
49943;BME280;36011;53.362;58.948;2023-02-27T15:13:33;96772.28;;;1.05;68.62
49943;BME280;36011;53.362;58.948;2023-02-27T15:16:42;96781.03;;;1.01;68.20
49943;BME280;36011;53.362;58.948;2023-02-27T15:19:57;96768.31;;;0.94;68.43
49943;BME280;36011;53.362;58.948;2023-02-27T15:23:19;96767.84;;;0.79;68.62
49943;BME280;36011;53.362;58.948;2023-02-27T15:26:25;96763.75;;;0.71;68.67
49943;BME280;36011;53.362;58.948;2023-02-27T15:29:37;96743.19;;;0.66;68.92
49943;BME280;36011;53.362;58.948;2023-02-27T15:32:41;96748.63;;;0.57;68.97
49943;BME280;36011;53.362;58.948;2023-02-27T15:35:46;96739.78;;;0.64;68.53
49943;BME280;36011;53.362;58.948;2023-02-27T15:42:19;96745.59;;;0.72;67.47
49943;BME280;36011;53.362;58.948;2023-02-27T15:45:31;96717.19;;;0.69;67.45
49943;BME280;36011;53.362;58.948;2023-02-27T15:48:38;96735.41;;;0.66;67.99
49943;BME280;36011;53.362;58.948;2023-02-27T15:51:42;96705.47;;;0.56;67.88
49943;BME280;36011;53.362;58.948;2023-02-27T15:54:52;96717.84;;;0.46;68.55
49943;BME280;36011;53.362;58.948;2023-02-27T15:57:54;96707.41;;;0.48;68.38
49943;BME280;36011;53.362;58.948;2023-02-27T16:01:07;96718.19;;;0.32;68.40
49943;BME280;36011;53.362;58.948;2023-02-27T16:04:23;96712.50;;;0.51;68.85
49943;BME280;36011;53.362;58.948;2023-02-27T16:07:25;96695.66;;;0.36;69.16
49943;BME280;36011;53.362;58.948;2023-02-27T16:10:29;96709.72;;;0.27;69.04
49943;BME280;36011;53.362;58.948;2023-02-27T16:13:38;96694.19;;;0.27;69.26
49943;BME280;36011;53.362;58.948;2023-02-27T16:16:53;96697.97;;;0.14;69.24
49943;BME280;36011;53.362;58.948;2023-02-27T16:19:58;96706.72;;;0.10;69.69
49943;BME280;36011;53.362;58.948;2023-02-27T16:23:14;96717.84;;;0.13;69.67
49943;BME280;36011;53.362;58.948;2023-02-27T16:26:32;96713.97;;;0.30;69.14
49943;BME280;36011;53.362;58.948;2023-02-27T16:29:43;96713.75;;;0.05;69.19
49943;BME280;36011;53.362;58.948;2023-02-27T16:32:47;96727.59;;;0.04;69.54
49943;BME280;36011;53.362;58.948;2023-02-27T16:35:51;96727.81;;;-0.06;69.59
49943;BME280;36011;53.362;58.948;2023-02-27T16:39:10;96727.19;;;-0.15;70.16
49943;BME280;36011;53.362;58.948;2023-02-27T16:42:16;96726.94;;;-0.06;70.07
49943;BME280;36011;53.362;58.948;2023-02-27T16:45:28;96736.28;;;0.01;69.98
49943;BME280;36011;53.362;58.948;2023-02-27T16:48:31;96760.84;;;-0.17;70.02
49943;BME280;36011;53.362;58.948;2023-02-27T16:51:32;96748.94;;;-0.22;71.02
49943;BME280;36011;53.362;58.948;2023-02-27T16:54:39;96753.44;;;-0.31;71.35
49943;BME280;36011;53.362;58.948;2023-02-27T16:57:43;96749.09;;;-0.30;71.45
49943;BME280;36011;53.362;58.948;2023-02-27T17:00:47;96754.03;;;-0.21;71.15
49943;BME280;36011;53.362;58.948;2023-02-27T17:03:48;96745.47;;;-0.23;71.43
49943;BME280;36011;53.362;58.948;2023-02-27T17:06:53;96739.63;;;0.05;70.59
49943;BME280;36011;53.362;58.948;2023-02-27T17:09:57;96729.44;;;-0.02;70.86
49943;BME280;36011;53.362;58.948;2023-02-27T17:13:00;96723.78;;;0.17;70.38
49943;BME280;36011;53.362;58.948;2023-02-27T17:16:05;96726.22;;;0.23;70.02
49943;BME280;36011;53.362;58.948;2023-02-27T17:19:06;96711.53;;;0.24;69.89
49943;BME280;36011;53.362;58.948;2023-02-27T17:22:10;96709.63;;;0.30;68.89
49943;BME280;36011;53.362;58.948;2023-02-27T17:25:12;96693.59;;;0.49;68.32
49943;BME280;36011;53.362;58.948;2023-02-27T17:28:14;96690.00;;;0.54;67.58
49943;BME280;36011;53.362;58.948;2023-02-27T17:31:18;96684.03;;;0.51;68.20
49943;BME280;36011;53.362;58.948;2023-02-27T17:34:23;96655.31;;;0.60;67.67
49943;BME280;36011;53.362;58.948;2023-02-27T17:37:29;96655.97;;;0.37;68.50
49943;BME280;36011;53.362;58.948;2023-02-27T17:40:31;96648.41;;;0.29;69.08
49943;BME280;36011;53.362;58.948;2023-02-27T17:43:35;96652.31;;;0.44;68.34
49943;BME280;36011;53.362;58.948;2023-02-27T17:46:41;96647.31;;;0.38;68.88
49943;BME280;36011;53.362;58.948;2023-02-27T17:49:43;96652.50;;;0.36;68.43
49943;BME280;36011;53.362;58.948;2023-02-27T17:52:44;96646.91;;;0.52;68.32
49943;BME280;36011;53.362;58.948;2023-02-27T17:55:48;96657.38;;;0.49;68.03
49943;BME280;36011;53.362;58.948;2023-02-27T17:58:49;96653.03;;;0.49;68.53
49943;BME280;36011;53.362;58.948;2023-02-27T18:01:53;96653.59;;;0.59;67.80
49943;BME280;36011;53.362;58.948;2023-02-27T18:04:57;96628.25;;;0.40;68.81
49943;BME280;36011;53.362;58.948;2023-02-27T18:08:04;96639.19;;;0.50;68.54
49943;BME280;36011;53.362;58.948;2023-02-27T18:11:13;96636.81;;;0.42;68.75
49943;BME280;36011;53.362;58.948;2023-02-27T18:14:20;96635.38;;;0.32;69.83
49943;BME280;36011;53.362;58.948;2023-02-27T18:17:23;96636.94;;;0.67;68.95
49943;BME280;36011;53.362;58.948;2023-02-27T18:20:25;96638.25;;;0.82;67.45
49943;BME280;36011;53.362;58.948;2023-02-27T18:23:29;96630.50;;;0.82;67.93
49943;BME280;36011;53.362;58.948;2023-02-27T18:26:31;96635.56;;;0.56;68.21
49943;BME280;36011;53.362;58.948;2023-02-27T18:29:35;96627.91;;;0.53;68.67
49943;BME280;36011;53.362;58.948;2023-02-27T18:32:36;96604.41;;;0.59;68.17
49943;BME280;36011;53.362;58.948;2023-02-27T18:35:40;96604.31;;;0.62;68.08
49943;BME280;36011;53.362;58.948;2023-02-27T18:38:42;96607.94;;;0.56;68.61
49943;BME280;36011;53.362;58.948;2023-02-27T18:41:46;96603.69;;;0.54;67.96
49943;BME280;36011;53.362;58.948;2023-02-27T18:44:55;96600.88;;;0.61;68.35
49943;BME280;36011;53.362;58.948;2023-02-27T18:47:56;96597.84;;;0.47;68.59
49943;BME280;36011;53.362;58.948;2023-02-27T18:51:01;96606.03;;;0.63;67.81
49943;BME280;36011;53.362;58.948;2023-02-27T18:54:09;96590.59;;;0.60;67.91
49943;BME280;36011;53.362;58.948;2023-02-27T18:57:16;96588.31;;;0.49;68.65
49943;BME280;36011;53.362;58.948;2023-02-27T19:00:18;96596.53;;;0.62;68.28